東京, 日本

2016年9月26日 19時24分 (GMT +0900)
Tokyo (Haneda) International | | Change Station

海拔 26 ft 35.55 °N, 139.78 °E | Updated 24 minutes ago

Scattered Clouds
多雲時晴
77 °F
感覺像 77 °F
8
風 變化 風 來自 東南偏東

今日
高 -- | 低 -- °F
--% 降水機率
昨天
高 -- | 低 -- °F
Precip. -- 英寸
氣壓 30.09 英寸
能見度 6.2 英里
多雲 少數 1000 ft
多雲時晴 4000 ft
露點 77 °F
濕度 100%
降雨量 0.00 英寸
積雪深度 不適用。
5:31 AM 5:32 PM
殘月, 20% visible
METAR RJTT 261000Z 11007KT 9999 FEW010 SCT040 BKN/// 25/25 Q1019 NOSIG RMK 1CU010 3SC040 A3012
氣壓 30.09 英寸
能見度 6.2 英里
多雲 少數 1000 ft
多雲時晴 4000 ft
露點 77 °F
濕度 100%
降雨量 0.00 英寸
積雪深度 不適用。
5:31 AM 5:32 PM
殘月, 20% visible
METAR RJTT 261000Z 11007KT 9999 FEW010 SCT040 BKN/// 25/25 Q1019 NOSIG RMK 1CU010 3SC040 A3012

10-Day Weather Forecast

No radar image for this location.
×

Almanac

天文

Sep. 26, 2016 昇起 降落
實際時間
民用曙暮光
航海曙暮光
天文學微明
月亮
可見光的長度
白晝時間
Tomorrow will be .
, % of the Moon is Illuminated

今天之最

國家高溫 國家低溫

Community

WunderPhotos

Upload Photos

1,941,852 照片已上傳!

WunderBlog® & News

Nearby

空氣質素

  空氣質素 空氣質素指數 污染物
Not available.

積雪量

Station 深度 海拔

地震活動

城市 距離 時間和日期
顯示的最小幅度是2.5。

沿海水溫

地點 溫度

Stations

附近的氣象站

氣象站位置 溫度 風寒指數 露點 濕度 Precip. 海拔 最近更新時間 類型